Time;durP1;ratioP1;P1;durP2;ratioP2;P2;SDS_P1;SDS_P2;PMS_P1;PMS_P2;Temp;Humidity;BMP_temperature;BMP_pressure;BME280_temperature;BME280_humidity;BME280_pressure;Samples;Min_cycle;Max_cycle;Signal;HPM_P1;HPM_P2
2022/06/21 00:00:39;;;;;;;4.47;2.40;;;;;13.20;101129.00;;;;4950347;28;20220;-73
2022/06/21 00:03:27;;;;;;;3.13;2.10;;;;;13.30;101127.00;;;;4951066;28;20220;-72
2022/06/21 00:06:16;;;;;;;4.37;2.30;;;;;13.20;101124.00;;;;4950228;28;20288;-72
2022/06/21 00:09:02;;;;;;;2.43;2.23;;;;;13.00;101128.00;;;;4951231;29;20244;-71
2022/06/21 00:11:50;;;;;;;2.80;2.13;;;;;12.90;101127.00;;;;4950764;28;20212;-70
2022/06/21 00:14:36;;;;;;;2.50;2.27;;;;;12.90;101129.00;;;;4951395;28;20212;-71
2022/06/21 00:17:23;;;;;;;3.07;2.43;;;;;12.90;101132.00;;;;4949807;28;20224;-71
2022/06/21 00:20:14;;;;;;;3.23;2.50;;;;;12.90;101134.00;;;;4947020;28;20236;-71
2022/06/21 00:23:00;;;;;;;3.77;2.43;;;;;12.90;101126.00;;;;4951281;28;20280;-72
2022/06/21 00:25:47;;;;;;;4.83;2.23;;;;;12.80;101137.00;;;;4948942;28;20840;-73
2022/06/21 00:28:35;;;;;;;2.63;1.83;;;;;12.60;101133.00;;;;4946852;28;20244;-69
2022/06/21 00:31:24;;;;;;;2.43;2.20;;;;;12.50;101139.00;;;;4948819;28;20587;-70
2022/06/21 00:34:14;;;;;;;2.57;2.17;;;;;12.60;101146.00;;;;4948686;29;20757;-72
2022/06/21 00:37:01;;;;;;;2.20;2.00;;;;;12.50;101141.00;;;;4943975;28;20216;-74
2022/06/21 00:39:47;;;;;;;3.03;2.27;;;;;12.50;101140.00;;;;4944018;29;20240;-70
2022/06/21 00:42:41;;;;;;;3.17;1.87;;;;;12.40;101139.00;;;;4948133;28;20213;-71
2022/06/21 00:45:33;;;;;;;3.50;2.40;;;;;12.30;101140.00;;;;4950090;28;20221;-71
2022/06/21 00:48:26;;;;;;;3.23;1.97;;;;;12.40;101141.00;;;;4947571;28;20217;-70
2022/06/21 00:51:16;;;;;;;4.30;2.30;;;;;12.30;101136.00;;;;4949438;28;20275;-73
2022/06/21 00:54:09;;;;;;;2.93;2.37;;;;;12.20;101140.00;;;;4944856;28;20287;-72
2022/06/21 00:57:01;;;;;;;3.80;2.63;;;;;12.20;101146.00;;;;4950454;28;20845;-66
2022/06/21 00:59:53;;;;;;;3.93;2.47;;;;;12.10;101145.00;;;;4949705;28;20251;-67
2022/06/21 01:02:40;;;;;;;8.13;2.00;;;;;12.00;101123.00;;;;4950876;28;20825;-70
2022/06/21 01:05:32;;;;;;;4.70;2.10;;;;;12.00;101130.00;;;;4947232;28;20288;-70
2022/06/21 01:08:24;;;;;;;3.30;2.97;;;;;11.90;101115.00;;;;4951630;28;20224;-72
2022/06/21 01:11:15;;;;;;;3.70;2.73;;;;;11.80;101108.00;;;;4974924;29;20232;-73
2022/06/21 01:14:02;;;;;;;3.47;2.20;;;;;11.80;101104.00;;;;4973690;28;20199;-75
2022/06/21 01:16:49;;;;;;;5.23;2.57;;;;;11.70;101114.00;;;;4972311;28;20200;-73
2022/06/21 01:19:41;;;;;;;4.60;2.83;;;;;11.60;101109.00;;;;4975395;29;20263;-74
2022/06/21 01:22:37;;;;;;;6.17;2.23;;;;;11.60;101106.00;;;;4976121;28;20216;-73
2022/06/21 01:25:34;;;;;;;3.27;2.40;;;;;11.50;101110.00;;;;4973455;28;20226;-72
2022/06/21 01:28:22;;;;;;;3.23;2.30;;;;;11.60;101110.00;;;;4971096;28;20211;-73
2022/06/21 01:31:09;;;;;;;2.73;2.20;;;;;11.50;101113.00;;;;4969387;28;20216;-72
2022/06/21 01:33:55;;;;;;;2.63;2.33;;;;;11.50;101108.00;;;;4975808;29;20204;-74
2022/06/21 01:36:43;;;;;;;3.43;2.30;;;;;11.40;101105.00;;;;4961671;29;20876;-73
2022/06/21 01:39:34;;;;;;;2.80;2.20;;;;;11.40;101115.00;;;;4947760;29;20247;-71
2022/06/21 01:42:27;;;;;;;3.53;2.30;;;;;11.30;101101.00;;;;4948692;28;20232;-70
2022/06/21 01:45:20;;;;;;;2.93;2.40;;;;;11.20;101104.00;;;;4949529;29;20214;-72
2022/06/21 01:48:12;;;;;;;3.57;2.37;;;;;11.20;101108.00;;;;4942045;28;20349;-71
2022/06/21 01:51:04;;;;;;;2.90;2.37;;;;;11.20;101111.00;;;;4946113;28;20218;-72
2022/06/21 01:53:51;;;;;;;6.97;2.47;;;;;11.20;101113.00;;;;4948457;28;20340;-71
2022/06/21 01:56:40;;;;;;;3.97;2.50;;;;;11.10;101099.00;;;;4946166;29;20216;-71
2022/06/21 01:59:30;;;;;;;3.20;2.03;;;;;11.10;101108.00;;;;4948157;28;20239;-73
2022/06/21 02:02:23;;;;;;;5.50;2.50;;;;;11.00;101108.00;;;;4948641;28;20216;-72
2022/06/21 02:05:13;;;;;;;3.17;2.10;;;;;11.00;101109.00;;;;4942781;28;20239;-70
2022/06/21 02:08:12;;;;;;;3.43;2.37;;;;;10.90;101107.00;;;;4944394;28;20212;-73
2022/06/21 02:11:01;;;;;;;2.50;2.30;;;;;10.80;101093.00;;;;4948802;28;20386;-72
2022/06/21 02:14:28;;;;;;;3.13;2.20;;;;;10.80;101085.00;;;;4947112;29;20824;-74
2022/06/21 02:17:09;;;;;;;3.80;2.17;;;;;10.70;101083.00;;;;4945360;28;20246;-72
2022/06/21 02:20:02;;;;;;;3.30;2.37;;;;;10.60;101079.00;;;;4946633;29;20344;-75
2022/06/21 02:22:49;;;;;;;3.50;2.60;;;;;10.60;101075.00;;;;4945731;28;20309;-74
2022/06/21 02:25:35;;;;;;;2.73;2.40;;;;;10.60;101069.00;;;;4946356;28;20221;-74
2022/06/21 02:28:24;;;;;;;3.60;2.20;;;;;10.60;101065.00;;;;4946959;28;20264;-70
2022/06/21 02:31:10;;;;;;;3.60;2.50;;;;;10.60;101072.00;;;;4946180;29;20240;-72
2022/06/21 02:34:01;;;;;;;2.33;1.93;;;;;10.60;101072.00;;;;4946478;28;20289;-69
2022/06/21 02:36:51;;;;;;;3.13;2.50;;;;;10.50;101067.00;;;;4944416;28;20953;-73
2022/06/21 02:39:37;;;;;;;2.80;2.27;;;;;10.40;101069.00;;;;4946685;28;20617;-72
2022/06/21 02:42:27;;;;;;;6.37;2.60;;;;;10.30;101067.00;;;;4944543;29;20278;-72
2022/06/21 02:45:23;;;;;;;3.87;2.43;;;;;10.30;101067.00;;;;4947499;29;20350;-73
2022/06/21 02:48:19;;;;;;;4.90;2.60;;;;;10.40;101068.00;;;;4942683;28;20593;-72
2022/06/21 02:51:11;;;;;;;2.93;2.30;;;;;10.20;101072.00;;;;4945980;28;20245;-72
2022/06/21 02:54:07;;;;;;;3.67;2.30;;;;;10.40;101077.00;;;;4947989;28;20212;-72
2022/06/21 02:57:00;;;;;;;3.07;2.30;;;;;10.50;101074.00;;;;4948726;29;20259;-72
2022/06/21 02:59:50;;;;;;;3.67;2.37;;;;;10.40;101090.00;;;;4945720;28;20275;-72
2022/06/21 03:02:36;;;;;;;4.47;2.30;;;;;10.30;101094.00;;;;4946952;28;20220;-72
2022/06/21 03:05:26;;;;;;;4.30;2.50;;;;;10.30;101091.00;;;;4947972;28;20213;-73
2022/06/21 03:08:12;;;;;;;3.10;2.30;;;;;10.30;101101.00;;;;4947121;29;20209;-71
2022/06/21 03:11:01;;;;;;;3.57;2.47;;;;;10.40;101099.00;;;;4942533;28;20766;-70
2022/06/21 03:13:47;;;;;;;4.20;2.50;;;;;10.30;101092.00;;;;4946644;29;20268;-72
2022/06/21 03:16:34;;;;;;;2.93;2.60;;;;;10.20;101102.00;;;;4947051;28;20224;-72
2022/06/21 03:19:25;;;;;;;3.33;2.50;;;;;10.10;101110.00;;;;4947522;28;21153;-73
2022/06/21 03:22:17;;;;;;;4.97;2.27;;;;;10.20;101105.00;;;;4946396;28;20221;-72
2022/06/21 03:25:07;;;;;;;5.77;2.90;;;;;10.20;101096.00;;;;4946619;28;20208;-71
2022/06/21 03:27:57;;;;;;;7.00;2.67;;;;;10.20;101105.00;;;;4947360;28;20970;-71
2022/06/21 03:30:43;;;;;;;4.17;2.47;;;;;10.20;101092.00;;;;4946188;29;20274;-72
2022/06/21 03:33:30;;;;;;;3.47;2.50;;;;;10.00;101093.00;;;;4947515;28;20217;-72
2022/06/21 03:36:19;;;;;;;3.80;2.80;;;;;10.10;101089.00;;;;4941578;28;20313;-72
2022/06/21 03:39:10;;;;;;;3.47;2.40;;;;;10.10;101093.00;;;;4950267;28;20234;-69
2022/06/21 03:41:56;;;;;;;2.23;2.03;;;;;10.10;101091.00;;;;4950195;28;20317;-72
2022/06/21 03:44:49;;;;;;;2.90;2.33;;;;;10.10;101071.00;;;;4950705;29;20212;-72
2022/06/21 03:47:40;;;;;;;6.00;2.93;;;;;10.10;101067.00;;;;4947568;29;20228;-72
2022/06/21 03:50:30;;;;;;;4.00;2.80;;;;;10.00;101077.00;;;;4947425;28;20297;-74
2022/06/21 03:53:21;;;;;;;4.30;2.30;;;;;10.30;101070.00;;;;4945482;29;20208;-72
2022/06/21 03:56:14;;;;;;;3.30;2.87;;;;;10.40;101072.00;;;;4944145;28;20217;-69
2022/06/21 03:59:08;;;;;;;3.23;2.77;;;;;10.20;101071.00;;;;4948784;28;20239;-73
2022/06/21 04:02:01;;;;;;;7.33;2.53;;;;;10.30;101078.00;;;;4950480;29;20608;-69
2022/06/21 04:04:53;;;;;;;3.30;2.43;;;;;10.20;101108.00;;;;4948994;28;20637;-72
2022/06/21 04:07:42;;;;;;;3.07;2.57;;;;;10.20;101087.00;;;;4948748;28;20215;-71
2022/06/21 04:10:35;;;;;;;4.70;2.83;;;;;10.30;101074.00;;;;4950345;28;20648;-70
2022/06/21 04:13:26;;;;;;;3.57;2.43;;;;;10.50;101071.00;;;;4943947;28;20792;-70
2022/06/21 04:16:18;;;;;;;6.67;3.40;;;;;10.50;101063.00;;;;4948105;28;20233;-71
2022/06/21 04:19:14;;;;;;;4.27;3.10;;;;;10.60;101051.00;;;;4942473;28;20231;-70
2022/06/21 04:22:06;;;;;;;3.53;2.90;;;;;10.80;101050.00;;;;4950431;28;20221;-71
2022/06/21 04:24:56;;;;;;;4.27;2.77;;;;;10.90;101061.00;;;;4950163;28;20616;-72
2022/06/21 04:27:47;;;;;;;3.47;2.33;;;;;11.00;101076.00;;;;4950237;29;20344;-72
2022/06/21 04:30:39;;;;;;;3.77;2.60;;;;;11.00;101082.00;;;;4949049;28;20236;-70
2022/06/21 04:33:30;;;;;;;3.23;2.80;;;;;11.00;101070.00;;;;4949683;28;20218;-70
2022/06/21 04:36:23;;;;;;;4.80;2.97;;;;;11.00;101076.00;;;;4950564;29;20216;-71
2022/06/21 04:39:13;;;;;;;2.57;2.20;;;;;11.10;101082.00;;;;4942658;29;20376;-71
2022/06/21 04:42:06;;;;;;;4.60;2.40;;;;;11.10;101091.00;;;;4949716;28;20282;-70
2022/06/21 04:44:59;;;;;;;4.17;2.67;;;;;11.20;101093.00;;;;4950376;29;20659;-72
2022/06/21 04:47:50;;;;;;;4.67;2.40;;;;;11.30;101100.00;;;;4947051;28;20221;-72
2022/06/21 04:50:41;;;;;;;3.47;2.77;;;;;11.30;101091.00;;;;4948601;28;20720;-73
2022/06/21 04:53:37;;;;;;;5.50;2.90;;;;;11.30;101091.00;;;;4944992;28;20226;-71
2022/06/21 04:56:37;;;;;;;3.20;2.43;;;;;11.40;101103.00;;;;4944641;28;20245;-74
2022/06/21 04:59:28;;;;;;;2.97;2.30;;;;;11.50;101102.00;;;;4948018;28;20246;-72
2022/06/21 05:02:20;;;;;;;4.67;2.80;;;;;11.60;101094.00;;;;4948372;28;20208;-71
2022/06/21 05:05:13;;;;;;;3.63;2.67;;;;;11.60;101087.00;;;;4945021;28;20211;-71
2022/06/21 05:08:06;;;;;;;3.67;2.70;;;;;11.80;101087.00;;;;4948473;29;20247;-71
2022/06/21 05:10:56;;;;;;;4.50;3.00;;;;;11.80;101086.00;;;;4949056;28;20220;-69
2022/06/21 05:13:48;;;;;;;5.80;3.00;;;;;11.90;101074.00;;;;4948657;29;20208;-71
2022/06/21 05:16:38;;;;;;;5.70;3.03;;;;;12.10;101081.00;;;;4945785;28;20220;-72
2022/06/21 05:19:32;;;;;;;7.60;3.60;;;;;12.20;101065.00;;;;4948865;28;20228;-71
2022/06/21 05:22:24;;;;;;;4.43;3.57;;;;;12.40;101071.00;;;;4942764;28;20299;-72
2022/06/21 05:25:20;;;;;;;6.43;3.33;;;;;12.50;101058.00;;;;4949844;28;20288;-71
2022/06/21 05:28:14;;;;;;;5.83;3.40;;;;;12.70;101049.00;;;;4948785;28;20214;-70
2022/06/21 05:31:07;;;;;;;9.27;3.67;;;;;12.90;101058.00;;;;4943844;29;20290;-71
2022/06/21 05:33:57;;;;;;;5.50;3.70;;;;;13.00;101045.00;;;;4946418;28;20211;-67
2022/06/21 05:36:56;;;;;;;6.70;3.37;;;;;13.20;101050.00;;;;4944928;28;20286;-72
2022/06/21 05:39:45;;;;;;;4.80;3.43;;;;;13.30;101039.00;;;;4947564;28;20239;-70
2022/06/21 05:42:32;;;;;;;4.87;3.43;;;;;13.40;101042.00;;;;4944671;29;20216;-70
2022/06/21 05:45:25;;;;;;;3.37;2.97;;;;;13.50;101037.00;;;;4948715;28;20599;-70
2022/06/21 05:48:18;;;;;;;7.07;3.30;;;;;13.50;101057.00;;;;4943220;28;20256;-69
2022/06/21 05:51:05;;;;;;;6.17;3.00;;;;;13.70;101041.00;;;;4948176;28;20275;-71
2022/06/21 05:53:56;;;;;;;5.00;2.37;;;;;13.80;101041.00;;;;4943013;28;20209;-71
2022/06/21 05:56:42;;;;;;;3.50;2.63;;;;;13.90;101043.00;;;;4941557;28;20640;-71
2022/06/21 05:59:28;;;;;;;4.07;2.70;;;;;13.90;101035.00;;;;4938556;28;20235;-71
2022/06/21 06:02:24;;;;;;;4.10;2.80;;;;;14.00;101043.00;;;;4943062;28;20235;-72
2022/06/21 06:05:16;;;;;;;6.07;3.90;;;;;14.10;101049.00;;;;4945352;28;20273;-70
2022/06/21 06:08:09;;;;;;;5.87;2.77;;;;;14.20;101044.00;;;;4943899;29;21490;-70
2022/06/21 06:10:56;;;;;;;6.57;2.63;;;;;14.20;101059.00;;;;4946255;28;20225;-72
2022/06/21 06:13:45;;;;;;;5.17;2.10;;;;;14.30;101060.00;;;;4948253;28;20216;-73
2022/06/21 06:16:37;;;;;;;2.90;2.30;;;;;14.40;101070.00;;;;4948244;28;20212;-74
2022/06/21 06:19:34;;;;;;;2.40;2.07;;;;;14.50;101065.00;;;;4942954;28;20227;-73
2022/06/21 06:22:25;;;;;;;3.00;1.90;;;;;14.50;101063.00;;;;4941892;28;20735;-73
2022/06/21 06:25:19;;;;;;;4.00;2.33;;;;;14.50;101060.00;;;;4945671;28;20207;-73
2022/06/21 06:28:16;;;;;;;6.80;2.57;;;;;14.70;101053.00;;;;4947729;29;20709;-74
2022/06/21 06:31:07;;;;;;;2.30;1.93;;;;;14.70;101064.00;;;;4947583;29;20327;-73
2022/06/21 06:33:58;;;;;;;4.03;2.40;;;;;14.70;101062.00;;;;4947834;29;20219;-71
2022/06/21 06:36:50;;;;;;;4.50;2.17;;;;;14.70;101060.00;;;;4948150;29;20705;-72
2022/06/21 06:39:38;;;;;;;5.17;2.27;;;;;14.90;101064.00;;;;4946141;29;20232;-72
2022/06/21 06:42:27;;;;;;;5.33;2.30;;;;;14.80;101071.00;;;;4946610;28;20928;-68
2022/06/21 06:45:17;;;;;;;4.83;2.33;;;;;14.80;101091.00;;;;4943252;29;20225;-68
2022/06/21 06:48:11;;;;;;;3.03;2.27;;;;;14.80;101082.00;;;;4948060;28;20991;-72
2022/06/21 06:51:05;;;;;;;6.27;2.50;;;;;14.90;101084.00;;;;4947995;28;20216;-71
2022/06/21 06:53:55;;;;;;;7.70;3.33;;;;;15.00;101086.00;;;;4944997;29;20829;-71
2022/06/21 06:56:55;;;;;;;3.97;2.40;;;;;15.20;101078.00;;;;4948075;28;20220;-73
2022/06/21 06:59:43;;;;;;;3.67;2.17;;;;;15.20;101083.00;;;;4944309;28;20806;-71
2022/06/21 07:02:36;;;;;;;5.40;2.13;;;;;15.40;101093.00;;;;4944355;28;20240;-72
2022/06/21 07:05:28;;;;;;;3.50;1.83;;;;;15.50;101096.00;;;;4943878;29;20225;-71
2022/06/21 07:08:21;;;;;;;2.40;1.53;;;;;15.70;101096.00;;;;4940860;28;20217;-70
2022/06/21 07:11:16;;;;;;;3.80;1.83;;;;;15.70;101091.00;;;;4947121;28;20217;-72
2022/06/21 07:14:03;;;;;;;6.33;1.97;;;;;15.80;101102.00;;;;4950606;28;20296;-72
2022/06/21 07:17:04;;;;;;;5.83;1.70;;;;;16.10;101096.00;;;;4951347;28;20610;-71
2022/06/21 07:19:53;;;;;;;3.43;1.43;;;;;16.10;101093.00;;;;4951142;28;20255;-71
2022/06/21 07:22:39;;;;;;;2.93;1.40;;;;;16.10;101094.00;;;;4946399;28;20704;-69
2022/06/21 07:25:32;;;;;;;2.20;1.83;;;;;16.20;101092.00;;;;4950440;28;20339;-72
2022/06/21 07:28:26;;;;;;;5.30;1.90;;;;;16.30;101090.00;;;;4945761;28;20264;-69
2022/06/21 07:31:18;;;;;;;6.60;1.50;;;;;16.50;101093.00;;;;4951342;28;20215;-70
2022/06/21 07:34:08;;;;;;;2.67;1.87;;;;;16.50;101082.00;;;;4949137;28;20223;-71
2022/06/21 07:36:59;;;;;;;3.77;2.40;;;;;16.60;101095.00;;;;4948098;28;20223;-71
2022/06/21 07:39:49;;;;;;;8.00;2.27;;;;;16.60;101082.00;;;;4951149;28;20318;-71
2022/06/21 07:42:43;;;;;;;2.83;1.70;;;;;16.90;101066.00;;;;4945766;28;20235;-71
2022/06/21 07:45:36;;;;;;;3.13;1.23;;;;;16.90;101068.00;;;;4951214;28;20223;-71
2022/06/21 07:48:28;;;;;;;2.67;1.50;;;;;16.90;101087.00;;;;4951039;28;20214;-71
2022/06/21 07:51:18;;;;;;;2.43;1.60;;;;;16.90;101087.00;;;;4947030;28;20597;-69
2022/06/21 07:54:08;;;;;;;4.63;1.43;;;;;17.00;101073.00;;;;4949522;28;20270;-74
2022/06/21 07:56:58;;;;;;;5.90;2.00;;;;;17.00;101063.00;;;;4950377;28;20817;-71
2022/06/21 07:59:51;;;;;;;3.47;1.50;;;;;17.20;101075.00;;;;4947221;28;20287;-70
2022/06/21 08:09:12;;;;;;;3.20;1.23;;;;;18.00;101083.00;;;;4948204;29;20615;-69
2022/06/21 08:12:00;;;;;;;2.67;1.10;;;;;18.00;101077.00;;;;4950335;28;20593;-73
2022/06/21 08:14:47;;;;;;;2.10;1.10;;;;;18.00;101077.00;;;;4950596;28;20281;-72
2022/06/21 08:17:39;;;;;;;2.07;1.00;;;;;18.00;101065.00;;;;4944953;28;20224;-72
2022/06/21 08:20:31;;;;;;;1.63;1.00;;;;;18.30;101069.00;;;;4949175;28;20865;-72
2022/06/21 08:23:20;;;;;;;3.33;1.30;;;;;18.50;101073.00;;;;4943313;28;20670;-73
2022/06/21 08:26:14;;;;;;;1.10;1.00;;;;;18.60;101065.00;;;;4950505;29;20604;-72
2022/06/21 08:29:05;;;;;;;3.97;1.30;;;;;18.50;101055.00;;;;4948234;29;20240;-71
2022/06/21 08:31:58;;;;;;;2.37;1.20;;;;;18.40;101047.00;;;;4949814;28;20235;-73
2022/06/21 08:34:50;;;;;;;2.73;1.20;;;;;18.80;101048.00;;;;4950484;29;20220;-70
2022/06/21 08:37:43;;;;;;;3.93;1.40;;;;;18.90;101042.00;;;;4946478;28;20212;-72
2022/06/21 08:41:01;;;;;;;2.33;1.10;;;;;19.20;101036.00;;;;4947118;28;20227;-72
2022/06/21 08:44:09;;;;;;;1.60;1.17;;;;;19.30;101046.00;;;;4949228;28;20240;-74
2022/06/21 08:47:32;;;;;;;5.87;1.20;;;;;19.60;101039.00;;;;4945920;28;20612;-73
2022/06/21 08:50:52;;;;;;;3.30;1.20;;;;;19.70;101031.00;;;;4949903;28;20729;-73
2022/06/21 08:53:59;;;;;;;3.53;1.20;;;;;19.70;101027.00;;;;4949880;28;20216;-72
2022/06/21 08:56:55;;;;;;;3.60;1.20;;;;;19.90;101034.00;;;;4945128;28;20964;-73
2022/06/21 08:59:51;;;;;;;2.77;1.10;;;;;20.00;101028.00;;;;4944673;28;20291;-73
2022/06/21 09:02:56;;;;;;;4.93;0.97;;;;;20.00;101023.00;;;;4947054;28;20232;-69
2022/06/21 09:05:59;;;;;;;3.27;1.20;;;;;20.10;101020.00;;;;4947974;28;20282;-72
2022/06/21 09:08:56;;;;;;;1.63;1.17;;;;;20.00;101018.00;;;;4948277;28;20227;-73
2022/06/21 09:11:51;;;;;;;1.37;1.20;;;;;20.20;101013.00;;;;4945434;29;20220;-72
2022/06/21 09:15:03;;;;;;;1.40;1.13;;;;;20.50;101018.00;;;;4947709;28;20204;-71
2022/06/21 09:18:00;;;;;;;1.67;1.07;;;;;20.80;101024.00;;;;4948632;28;20223;-71
2022/06/21 09:20:56;;;;;;;4.70;1.60;;;;;21.20;101031.00;;;;4947623;28;20308;-70
2022/06/21 09:23:56;;;;;;;3.10;1.03;;;;;21.00;101021.00;;;;4945049;28;20232;-72
2022/06/21 09:26:46;;;;;;;2.37;1.20;;;;;20.80;101004.00;;;;4945349;28;20213;-72
2022/06/21 09:29:39;;;;;;;1.73;1.00;;;;;20.60;101002.00;;;;4949444;29;20315;-71
2022/06/21 09:32:35;;;;;;;2.10;1.20;;;;;20.40;100998.00;;;;4941441;28;20201;-70
2022/06/21 09:35:33;;;;;;;3.30;1.10;;;;;20.30;100985.00;;;;4948012;28;20224;-69
2022/06/21 09:38:30;;;;;;;2.00;1.30;;;;;20.50;100992.00;;;;4948432;28;20204;-74
2022/06/21 09:41:21;;;;;;;3.67;0.90;;;;;20.80;100987.00;;;;4948583;28;20886;-71
2022/06/21 09:44:15;;;;;;;1.30;1.00;;;;;21.10;100986.00;;;;4948217;28;20308;-72
2022/06/21 09:47:09;;;;;;;1.87;1.10;;;;;21.60;100988.00;;;;4947857;28;20786;-68
2022/06/21 09:50:03;;;;;;;2.50;0.90;;;;;21.90;100994.00;;;;4949398;28;20629;-70
2022/06/21 09:52:56;;;;;;;0.80;0.80;;;;;21.70;100985.00;;;;4945110;29;20271;-71
2022/06/21 09:55:52;;;;;;;1.23;1.00;;;;;21.60;100976.00;;;;4948221;28;20214;-71
2022/06/21 09:58:45;;;;;;;2.57;1.60;;;;;21.90;100977.00;;;;4943182;29;20229;-72
2022/06/21 10:01:38;;;;;;;2.03;1.00;;;;;21.80;100975.00;;;;4942733;29;20255;-71
2022/06/21 10:04:36;;;;;;;2.80;1.13;;;;;22.00;100977.00;;;;4947076;28;20221;-71
2022/06/21 10:07:34;;;;;;;2.63;0.93;;;;;22.00;100970.00;;;;4943379;28;20259;-72
2022/06/21 10:10:40;;;;;;;1.17;0.93;;;;;22.10;100970.00;;;;4948197;29;20237;-71
2022/06/21 10:13:53;;;;;;;1.83;1.10;;;;;22.50;100961.00;;;;4946002;28;20226;-71
2022/06/21 10:16:59;;;;;;;5.73;0.97;;;;;22.40;100960.00;;;;4944275;28;20582;-71
2022/06/21 10:19:59;;;;;;;1.10;0.90;;;;;22.40;100959.00;;;;4947038;28;20303;-72
2022/06/21 10:22:54;;;;;;;3.13;1.00;;;;;22.50;100949.00;;;;4946946;29;20395;-70
2022/06/21 10:25:58;;;;;;;2.77;1.00;;;;;22.50;100942.00;;;;4948074;28;20207;-72
2022/06/21 10:29:01;;;;;;;3.83;1.00;;;;;22.30;100935.00;;;;4944371;28;20366;-73
2022/06/21 10:32:19;;;;;;;1.17;0.80;;;;;22.40;100946.00;;;;4941925;29;20370;-72
2022/06/21 10:35:22;;;;;;;2.57;0.90;;;;;22.60;100948.00;;;;4945726;28;20237;-72
2022/06/21 10:38:32;;;;;;;1.33;0.80;;;;;22.60;100933.00;;;;4948325;29;20337;-74
2022/06/21 10:41:33;;;;;;;3.63;1.10;;;;;22.90;100936.00;;;;4947555;28;20219;-73
2022/06/21 10:44:40;;;;;;;2.83;1.00;;;;;23.20;100922.00;;;;4947211;28;20251;-74
2022/06/21 10:47:49;;;;;;;2.13;1.23;;;;;23.60;100938.00;;;;4950078;28;20223;-73
2022/06/21 10:50:45;;;;;;;1.77;1.00;;;;;24.00;100934.00;;;;4949636;28;20242;-71
2022/06/21 10:53:47;;;;;;;1.53;1.07;;;;;24.30;100929.00;;;;4946704;28;20298;-71
2022/06/21 11:04:00;;;;;;;3.20;1.07;;;;;23.40;100924.00;;;;4949458;28;20735;-73
2022/06/21 11:06:52;;;;;;;6.53;1.10;;;;;23.30;100933.00;;;;4948455;28;20263;-73
2022/06/21 11:09:44;;;;;;;0.80;0.80;;;;;23.20;100944.00;;;;4951170;28;20240;-72
2022/06/21 11:12:56;;;;;;;1.93;1.00;;;;;23.40;100946.00;;;;4948848;28;20215;-74
2022/06/21 11:15:57;;;;;;;1.43;1.13;;;;;23.60;100947.00;;;;4950413;28;20278;-74
2022/06/21 11:18:56;;;;;;;3.00;1.03;;;;;23.70;100952.00;;;;4950780;28;20231;-73
2022/06/21 11:22:01;;;;;;;2.67;1.00;;;;;23.60;100934.00;;;;4950360;28;20291;-71
2022/06/21 11:24:58;;;;;;;3.47;1.10;;;;;23.80;100930.00;;;;4949354;28;20240;-73
2022/06/21 11:27:51;;;;;;;1.43;0.90;;;;;23.60;100932.00;;;;4948997;28;20220;-69
2022/06/21 11:30:48;;;;;;;2.53;1.03;;;;;23.60;100933.00;;;;4950737;28;20769;-71
2022/06/21 11:33:43;;;;;;;2.47;1.00;;;;;24.10;100939.00;;;;4949950;28;20220;-72
2022/06/21 11:36:37;;;;;;;2.67;1.10;;;;;24.20;100938.00;;;;4949803;28;20769;-68
2022/06/21 11:39:35;;;;;;;1.23;1.10;;;;;23.90;100933.00;;;;4949348;28;20244;-70
2022/06/21 11:42:25;;;;;;;1.90;0.90;;;;;23.90;100922.00;;;;4949343;28;20212;-71
2022/06/21 11:45:46;;;;;;;3.47;1.10;;;;;23.80;100902.00;;;;4949190;28;20264;-70
2022/06/21 11:48:55;;;;;;;3.93;1.00;;;;;23.90;100900.00;;;;4947114;28;20272;-73
2022/06/21 11:51:57;;;;;;;3.17;1.00;;;;;24.00;100902.00;;;;4950547;28;20317;-70
2022/06/21 11:54:47;;;;;;;4.33;1.10;;;;;24.00;100904.00;;;;4944604;29;20235;-71
2022/06/21 11:57:43;;;;;;;1.47;0.90;;;;;24.50;100921.00;;;;4947680;28;20212;-70
2022/06/21 12:00:36;;;;;;;4.00;1.10;;;;;24.70;100923.00;;;;4945505;29;20291;-69
2022/06/21 12:03:32;;;;;;;5.93;1.43;;;;;24.90;100926.00;;;;4949301;28;20228;-69
2022/06/21 12:06:29;;;;;;;2.53;1.20;;;;;24.80;100932.00;;;;4948947;29;20217;-70
2022/06/21 12:09:26;;;;;;;2.27;1.10;;;;;24.80;100927.00;;;;4950306;28;20719;-71
2022/06/21 12:12:28;;;;;;;1.60;1.00;;;;;24.70;100929.00;;;;4950142;29;20216;-71
2022/06/21 12:15:34;;;;;;;2.57;1.30;;;;;25.10;100925.00;;;;4948925;28;20220;-69
2022/06/21 12:18:23;;;;;;;1.40;0.80;;;;;25.70;100929.00;;;;4949897;28;20213;-69
2022/06/21 12:21:13;;;;;;;3.07;1.10;;;;;25.70;100929.00;;;;4950816;28;20216;-71
2022/06/21 12:24:05;;;;;;;2.50;1.07;;;;;25.80;100928.00;;;;4950176;28;20244;-71
2022/06/21 12:26:54;;;;;;;1.33;1.03;;;;;25.60;100938.00;;;;4949454;28;20220;-72
2022/06/21 12:29:40;;;;;;;0.90;0.90;;;;;25.10;100934.00;;;;4950470;28;20262;-70
2022/06/21 12:32:30;;;;;;;2.40;1.00;;;;;24.80;100944.00;;;;4949620;28;20208;-70
2022/06/21 12:35:19;;;;;;;2.90;0.80;;;;;24.70;100941.00;;;;4949063;28;20220;-70
2022/06/21 12:38:10;;;;;;;1.13;0.93;;;;;24.60;100946.00;;;;4950149;28;20208;-69
2022/06/21 12:41:10;;;;;;;0.97;0.90;;;;;24.70;100935.00;;;;4946438;28;20360;-68
2022/06/21 12:44:04;;;;;;;2.30;1.10;;;;;24.40;100922.00;;;;4947330;29;20737;-69
2022/06/21 12:47:01;;;;;;;1.20;1.10;;;;;24.40;100916.00;;;;4946273;28;20261;-69
2022/06/21 12:50:42;;;;;;;1.23;0.90;;;;;24.30;100905.00;;;;4942511;28;20236;-67
2022/06/21 12:53:47;;;;;;;1.30;1.00;;;;;24.30;100902.00;;;;4888143;29;20671;-69
2022/06/21 12:56:50;;;;;;;1.50;0.97;;;;;24.50;100896.00;;;;4950518;28;20350;-71
2022/06/21 12:59:49;;;;;;;2.23;0.90;;;;;24.60;100884.00;;;;4944985;28;20301;-69
2022/06/21 13:03:02;;;;;;;0.97;0.90;;;;;24.60;100880.00;;;;4949524;28;20349;-69
2022/06/21 13:06:05;;;;;;;4.20;1.10;;;;;24.40;100881.00;;;;4945036;28;20228;-69
2022/06/21 13:09:20;;;;;;;2.23;0.80;;;;;24.60;100883.00;;;;4944554;28;20232;-69
2022/06/21 13:12:36;;;;;;;1.73;1.10;;;;;24.60;100880.00;;;;4946268;28;20717;-70
2022/06/21 13:15:45;;;;;;;1.63;1.07;;;;;24.40;100871.00;;;;4947944;28;20228;-71
2022/06/21 13:18:53;;;;;;;1.90;0.90;;;;;24.20;100875.00;;;;4947797;28;20208;-71
2022/06/21 13:21:56;;;;;;;2.77;0.97;;;;;24.10;100869.00;;;;4948270;28;20216;-72
2022/06/21 13:24:55;;;;;;;4.80;1.13;;;;;24.20;100874.00;;;;4948615;29;20602;-71
2022/06/21 13:27:54;;;;;;;1.63;1.00;;;;;24.30;100864.00;;;;4944376;29;21010;-71
2022/06/21 13:30:55;;;;;;;2.07;1.00;;;;;24.30;100870.00;;;;4949645;29;20323;-70
2022/06/21 13:33:56;;;;;;;2.77;1.10;;;;;24.50;100875.00;;;;4948527;28;20218;-70
2022/06/21 13:36:48;;;;;;;1.13;1.00;;;;;24.30;100861.00;;;;4948521;28;20749;-72
2022/06/21 13:39:42;;;;;;;5.83;1.20;;;;;24.50;100857.00;;;;4941525;28;20236;-68
2022/06/21 13:42:40;;;;;;;1.10;0.87;;;;;24.80;100862.00;;;;4948508;28;20212;-73
2022/06/21 13:45:40;;;;;;;1.40;1.00;;;;;25.50;100862.00;;;;4947144;28;20224;-71
2022/06/21 13:48:36;;;;;;;1.97;0.83;;;;;26.30;100866.00;;;;4949239;29;20240;-73
2022/06/21 13:51:31;;;;;;;2.17;0.70;;;;;26.50;100856.00;;;;4948055;29;20220;-73
2022/06/21 13:54:29;;;;;;;2.50;1.00;;;;;26.10;100859.00;;;;4948998;29;20212;-73
2022/06/21 13:57:33;;;;;;;0.93;0.80;;;;;25.80;100851.00;;;;4947657;28;20237;-71
2022/06/21 14:00:31;;;;;;;5.97;3.70;;;;;25.50;100844.00;;;;4948844;28;20247;-72
2022/06/21 14:03:28;;;;;;;4.40;1.10;;;;;25.50;100848.00;;;;4946164;29;20228;-70
2022/06/21 14:06:19;;;;;;;4.28;0.88;;;;;25.70;100848.00;;;;4945809;29;20713;-71
2022/06/21 14:09:15;;;;;;;0.80;0.80;;;;;25.90;100837.00;;;;4946327;28;20240;-71
2022/06/21 14:12:09;;;;;;;2.05;0.90;;;;;25.80;100845.00;;;;4943679;29;20272;-72
2022/06/21 14:15:00;;;;;;;3.20;1.08;;;;;25.60;100844.00;;;;4942831;28;20729;-74
2022/06/21 14:17:52;;;;;;;2.20;1.00;;;;;25.30;100845.00;;;;4943558;29;21294;-71
2022/06/21 14:20:46;;;;;;;3.30;0.90;;;;;25.10;100838.00;;;;4946683;28;20224;-73
2022/06/21 14:23:37;;;;;;;2.47;0.97;;;;;24.70;100851.00;;;;4946908;29;20845;-74
2022/06/21 14:26:33;;;;;;;2.10;1.07;;;;;24.60;100836.00;;;;4946737;28;20746;-72
2022/06/21 14:29:26;;;;;;;1.90;0.97;;;;;24.60;100848.00;;;;4947543;28;20702;-69
2022/06/21 14:32:19;;;;;;;4.80;0.90;;;;;24.50;100847.00;;;;4947008;28;20223;-72
2022/06/21 14:35:11;;;;;;;1.97;1.33;;;;;24.50;100844.00;;;;4947217;28;20224;-71